Time;durP1;ratioP1;P1;durP2;ratioP2;P2;SDS_P1;SDS_P2;PMS_P1;PMS_P2;Temp;Humidity;BMP_temperature;BMP_pressure;BME280_temperature;BME280_humidity;BME280_pressure;Samples;Min_cycle;Max_cycle;Signal;HPM_P1;HPM_P2
2022/04/14 00:02:11;;;;;;;0.60;0.23;;;17.20;1.00;;;;;;5092733;28;20454;-75
2022/04/14 00:04:39;;;;;;;0.77;0.53;;;17.20;1.00;;;;;;5092209;28;20871;-75
2022/04/14 00:07:07;;;;;;;0.60;0.20;;;17.10;1.00;;;;;;5092321;28;20518;-75
2022/04/14 00:09:36;;;;;;;0.60;0.20;;;17.10;1.00;;;;;;5092069;28;20482;-75
2022/04/14 00:12:05;;;;;;;1.10;0.30;;;17.10;1.00;;;;;;5073245;28;20459;-74
2022/04/14 00:14:33;;;;;;;0.70;0.40;;;;;;;;;;5072029;28;20444;-75
2022/04/14 00:17:01;;;;;;;0.60;0.20;;;17.00;1.00;;;;;;5071265;28;20466;-75
2022/04/14 00:19:31;;;;;;;0.60;0.20;;;17.00;1.00;;;;;;5070856;28;20442;-75
2022/04/14 00:21:58;;;;;;;0.60;0.20;;;17.00;1.00;;;;;;5072008;28;20823;-73
2022/04/14 00:24:26;;;;;;;1.53;0.93;;;17.00;1.00;;;;;;5071584;28;20575;-75
2022/04/14 00:26:54;;;;;;;1.33;0.73;;;17.00;1.00;;;;;;5087476;28;20488;-74
2022/04/14 00:29:22;;;;;;;1.17;1.07;;;17.00;1.00;;;;;;5091257;28;20461;-76
2022/04/14 00:31:50;;;;;;;0.77;0.63;;;16.90;1.00;;;;;;5091696;28;20530;-75
2022/04/14 00:34:18;;;;;;;1.37;0.83;;;16.90;1.00;;;;;;5091204;28;20444;-75
2022/04/14 00:36:47;;;;;;;4.70;1.40;;;16.80;1.00;;;;;;5091411;28;20467;-75
2022/04/14 00:39:15;;;;;;;0.60;0.17;;;16.80;1.00;;;;;;5090306;28;20436;-75
2022/04/14 00:41:43;;;;;;;3.63;2.10;;;16.80;1.00;;;;;;5071670;28;20441;-74
2022/04/14 00:44:11;;;;;;;0.70;0.57;;;16.80;1.00;;;;;;5071197;28;20462;-75
2022/04/14 00:46:39;;;;;;;1.10;0.80;;;16.70;1.00;;;;;;5070837;28;20485;-75
2022/04/14 00:49:07;;;;;;;0.67;0.37;;;16.70;1.00;;;;;;5071309;28;20762;-75
2022/04/14 00:51:35;;;;;;;0.80;0.53;;;;;;;;;;5071159;28;20524;-74
2022/04/14 00:54:05;;;;;;;1.37;1.27;;;16.70;1.00;;;;;;5070906;28;20893;-75
2022/04/14 00:56:32;;;;;;;0.60;0.20;;;16.70;1.00;;;;;;5071756;28;20578;-74
2022/04/14 00:59:00;;;;;;;0.77;0.60;;;16.70;1.00;;;;;;5071138;28;20992;-74
2022/04/14 01:01:28;;;;;;;1.17;1.07;;;16.70;1.00;;;;;;5070980;28;20473;-74
2022/04/14 01:03:58;;;;;;;1.40;1.30;;;16.60;1.00;;;;;;5071009;28;20541;-75
2022/04/14 01:06:27;;;;;;;0.70;0.30;;;16.60;1.00;;;;;;5069993;28;21172;-75
2022/04/14 01:11:54;;;;;;;0.60;0.20;;;16.60;1.00;;;;;;4990678;28;20454;-77
2022/04/14 01:14:26;;;;;;;1.53;1.43;;;16.50;1.00;;;;;;5052251;28;20770;-75
2022/04/14 01:16:55;;;;;;;1.30;0.97;;;16.50;1.00;;;;;;5070691;28;20461;-75
2022/04/14 01:19:23;;;;;;;0.70;0.30;;;16.50;1.00;;;;;;5071142;28;20452;-75
2022/04/14 01:21:58;;;;;;;0.60;0.10;;;16.50;1.00;;;;;;5071172;28;20437;-75
2022/04/14 01:24:28;;;;;;;1.13;1.03;;;16.50;1.00;;;;;;5070730;28;20454;-74
2022/04/14 01:26:56;;;;;;;13.80;2.30;;;;;;;;;;5076451;28;20494;-76
2022/04/14 01:29:25;;;;;;;1.63;1.33;;;16.50;1.00;;;;;;5071160;28;20452;-75
2022/04/14 01:31:55;;;;;;;1.10;0.93;;;16.40;1.00;;;;;;5071268;28;20443;-74
2022/04/14 01:34:23;;;;;;;0.80;0.43;;;16.40;1.00;;;;;;5070667;28;20448;-75
2022/04/14 01:36:51;;;;;;;2.70;1.33;;;16.40;1.00;;;;;;5070255;28;20983;-74
2022/04/14 01:39:19;;;;;;;2.03;1.93;;;16.40;1.00;;;;;;5071257;28;20570;-75
2022/04/14 01:41:49;;;;;;;1.67;1.53;;;16.30;1.00;;;;;;5072280;28;20456;-75
2022/04/14 01:44:16;;;;;;;0.80;0.57;;;16.30;1.00;;;;;;5070996;28;20445;-74
2022/04/14 01:46:44;;;;;;;1.53;1.43;;;16.30;1.00;;;;;;5070519;28;20502;-75
2022/04/14 01:49:13;;;;;;;0.60;0.10;;;16.30;1.00;;;;;;5070795;28;20801;-75
2022/04/14 01:51:41;;;;;;;0.60;0.10;;;16.20;1.00;;;;;;5074098;28;20920;-75
2022/04/14 01:54:09;;;;;;;1.10;0.80;;;16.20;1.00;;;;;;5088654;28;20527;-74
2022/04/14 01:56:37;;;;;;;0.80;0.30;;;;;;;;;;5090397;28;20855;-76
2022/04/14 01:59:06;;;;;;;1.03;0.93;;;16.10;1.00;;;;;;5070816;28;20855;-74
2022/04/14 02:01:34;;;;;;;1.17;0.97;;;16.10;1.00;;;;;;5071162;28;20891;-75
2022/04/14 02:04:02;;;;;;;0.60;0.13;;;;;;;;;;5070798;28;20442;-75
2022/04/14 02:06:30;;;;;;;1.13;0.87;;;16.10;1.00;;;;;;5070330;28;20477;-75
2022/04/14 02:08:58;;;;;;;1.23;1.13;;;;;;;;;;5070567;28;20825;-75
2022/04/14 02:11:27;;;;;;;0.80;0.63;;;16.00;1.00;;;;;;5072352;28;20454;-76
2022/04/14 02:13:55;;;;;;;1.77;1.60;;;16.00;1.00;;;;;;5070545;28;20446;-75
2022/04/14 02:16:24;;;;;;;0.60;0.20;;;16.00;1.00;;;;;;5069323;28;20553;-75
2022/04/14 02:18:52;;;;;;;2.07;1.63;;;16.00;1.00;;;;;;5070395;28;20459;-75
2022/04/14 02:21:20;;;;;;;0.60;0.20;;;15.90;1.00;;;;;;5070134;28;20579;-75
2022/04/14 02:23:48;;;;;;;2.60;1.90;;;15.90;1.00;;;;;;5070648;28;20442;-74
2022/04/14 02:26:16;;;;;;;0.80;0.53;;;15.90;1.00;;;;;;5081659;28;20472;-75
2022/04/14 02:28:43;;;;;;;1.33;0.70;;;15.80;1.00;;;;;;5090354;28;20930;-75
2022/04/14 02:31:11;;;;;;;0.60;0.20;;;15.80;1.00;;;;;;5090649;28;20464;-76
2022/04/14 02:33:40;;;;;;;0.97;0.73;;;15.80;1.00;;;;;;5090041;28;20946;-75
2022/04/14 02:36:08;;;;;;;6.77;2.43;;;15.80;1.00;;;;;;5089903;28;20958;-76
2022/04/14 02:38:36;;;;;;;1.60;1.50;;;15.80;1.00;;;;;;5090810;28;20536;-75
2022/04/14 02:41:04;;;;;;;0.93;0.83;;;15.80;1.00;;;;;;5090237;28;20444;-74
2022/04/14 02:43:32;;;;;;;0.60;0.20;;;15.70;1.00;;;;;;5094095;28;20441;-74
2022/04/14 02:46:00;;;;;;;0.97;0.50;;;15.70;1.00;;;;;;5074157;28;20868;-73
2022/04/14 02:48:28;;;;;;;0.70;0.30;;;15.70;1.00;;;;;;5072826;28;20477;-73
2022/04/14 02:50:57;;;;;;;0.60;0.20;;;15.70;1.00;;;;;;5073554;28;20918;-75
2022/04/14 02:53:25;;;;;;;0.87;0.70;;;15.70;1.00;;;;;;5073809;28;20449;-75
2022/04/14 02:58:32;;;;;;;2.47;2.27;;;15.60;1.00;;;;;;4977397;28;20463;-77
2022/04/14 03:01:00;;;;;;;1.10;0.80;;;15.70;1.00;;;;;;4984267;28;20518;-76
2022/04/14 03:03:28;;;;;;;0.67;0.37;;;15.60;1.00;;;;;;4979334;28;20591;-77
2022/04/14 03:05:57;;;;;;;0.67;0.30;;;15.60;1.00;;;;;;4977057;28;20539;-75
2022/04/14 03:08:25;;;;;;;2.50;0.73;;;15.60;1.00;;;;;;4978076;28;20493;-77
2022/04/14 03:10:55;;;;;;;2.10;2.00;;;15.60;1.00;;;;;;4978666;28;20449;-76
2022/04/14 03:13:23;;;;;;;1.80;1.70;;;15.50;1.00;;;;;;4978176;28;20972;-75
2022/04/14 03:15:51;;;;;;;1.03;0.47;;;15.50;1.00;;;;;;4979067;28;20454;-76
2022/04/14 03:18:19;;;;;;;5.60;1.90;;;15.50;1.00;;;;;;4976535;28;20517;-76
2022/04/14 03:20:47;;;;;;;1.37;0.40;;;15.50;1.00;;;;;;4977240;28;20486;-77
2022/04/14 03:23:16;;;;;;;1.93;1.17;;;15.50;1.00;;;;;;4977388;28;20995;-77
2022/04/14 03:25:45;;;;;;;1.97;1.80;;;15.50;1.00;;;;;;4976661;28;20860;-77
2022/04/14 03:28:13;;;;;;;3.03;2.17;;;15.40;1.00;;;;;;4976327;28;20482;-77
2022/04/14 03:30:40;;;;;;;3.80;0.90;;;15.50;1.00;;;;;;4979638;28;20540;-77
2022/04/14 03:33:09;;;;;;;0.60;0.30;;;15.40;1.00;;;;;;4996022;28;20442;-76
2022/04/14 03:35:37;;;;;;;2.73;2.60;;;15.40;1.00;;;;;;4995606;28;20457;-78
2022/04/14 03:38:05;;;;;;;3.83;2.73;;;15.40;1.00;;;;;;4997414;28;20556;-77
2022/04/14 03:40:54;;;;;;;3.57;2.93;;;15.40;1.00;;;;;;4997667;28;20445;-77
2022/04/14 03:43:22;;;;;;;3.30;3.00;;;15.30;1.00;;;;;;4995594;28;20441;-76
2022/04/14 03:45:50;;;;;;;0.70;0.40;;;15.30;1.00;;;;;;4993689;28;20438;-77
2022/04/14 03:48:18;;;;;;;2.00;1.40;;;15.30;1.00;;;;;;4975402;28;20488;-75
2022/04/14 03:50:46;;;;;;;1.23;0.87;;;15.30;1.00;;;;;;4974918;28;20868;-75
2022/04/14 03:53:14;;;;;;;2.77;2.57;;;15.30;1.00;;;;;;4974489;28;20454;-76
2022/04/14 03:55:42;;;;;;;5.50;3.00;;;15.30;1.00;;;;;;4974427;28;20455;-77
2022/04/14 03:58:11;;;;;;;2.60;1.70;;;15.30;1.00;;;;;;4973835;28;20556;-76
2022/04/14 04:00:39;;;;;;;2.47;2.00;;;15.30;1.00;;;;;;4974948;28;20489;-76
2022/04/14 04:03:09;;;;;;;3.90;2.03;;;15.20;1.00;;;;;;4976001;28;20976;-76
2022/04/14 04:05:38;;;;;;;2.20;2.10;;;15.20;1.00;;;;;;4974630;28;20459;-77
2022/04/14 04:08:06;;;;;;;7.57;3.10;;;15.20;1.00;;;;;;4974224;28;20577;-77
2022/04/14 04:10:34;;;;;;;1.37;1.27;;;15.20;1.00;;;;;;4974862;28;20549;-77
2022/04/14 04:13:03;;;;;;;2.10;1.37;;;15.20;1.00;;;;;;4981304;28;20530;-76
2022/04/14 04:15:33;;;;;;;4.20;2.87;;;15.10;1.00;;;;;;4966797;28;20868;-75
2022/04/14 04:18:02;;;;;;;5.03;1.87;;;;;;;;;;4977297;28;20470;-76
2022/04/14 04:20:30;;;;;;;4.63;1.80;;;15.10;1.00;;;;;;4982721;28;20442;-76
2022/04/14 04:22:58;;;;;;;6.43;3.20;;;15.10;1.00;;;;;;4983073;28;20550;-76
2022/04/14 04:25:26;;;;;;;4.37;3.63;;;15.10;1.00;;;;;;4977601;28;20500;-76
2022/04/14 04:27:54;;;;;;;4.00;3.60;;;15.10;1.00;;;;;;4993833;28;20568;-77
2022/04/14 04:30:22;;;;;;;4.20;1.57;;;15.10;1.00;;;;;;4990062;28;20442;-77
2022/04/14 04:32:51;;;;;;;7.73;2.53;;;15.10;1.00;;;;;;4969038;28;20472;-76
2022/04/14 04:35:20;;;;;;;2.17;1.97;;;15.10;1.00;;;;;;4973475;28;20464;-77
2022/04/14 04:37:48;;;;;;;3.90;3.53;;;15.10;1.00;;;;;;4973581;28;20491;-76
2022/04/14 04:40:18;;;;;;;0.70;0.27;;;15.10;1.00;;;;;;4975643;28;21041;-76
2022/04/14 04:42:46;;;;;;;8.87;5.23;;;15.10;1.00;;;;;;4974705;28;20443;-77
2022/04/14 04:45:14;;;;;;;1.00;0.90;;;15.10;1.00;;;;;;4974114;28;20437;-77
2022/04/14 04:47:42;;;;;;;4.27;3.77;;;15.10;1.00;;;;;;4972975;28;20487;-77
2022/04/14 04:50:11;;;;;;;1.63;1.53;;;15.00;1.00;;;;;;4979222;28;20460;-77
2022/04/14 04:52:39;;;;;;;3.30;2.07;;;15.00;1.00;;;;;;4987897;28;20811;-76
2022/04/14 04:55:08;;;;;;;8.63;2.60;;;15.00;1.00;;;;;;4984656;28;20486;-78
2022/04/14 04:57:36;;;;;;;0.97;0.67;;;15.00;1.00;;;;;;4973235;28;20493;-77
2022/04/14 05:00:04;;;;;;;3.33;1.50;;;15.00;1.00;;;;;;4974864;28;20480;-76
2022/04/14 05:02:32;;;;;;;2.63;1.80;;;15.00;1.00;;;;;;4974539;28;20454;-77
2022/04/14 05:05:00;;;;;;;3.10;1.63;;;15.00;1.00;;;;;;4981772;28;21024;-77
2022/04/14 05:07:29;;;;;;;0.90;0.40;;;15.00;1.00;;;;;;4976148;28;20454;-77
2022/04/14 05:09:57;;;;;;;4.57;1.60;;;15.00;1.00;;;;;;4984256;28;20476;-76
2022/04/14 05:12:25;;;;;;;3.07;2.87;;;15.00;1.00;;;;;;4993206;28;20576;-77
2022/04/14 05:14:53;;;;;;;3.27;2.40;;;15.00;1.00;;;;;;4993320;28;20449;-76
2022/04/14 05:17:21;;;;;;;3.70;1.60;;;15.00;1.00;;;;;;4993450;28;20564;-77
2022/04/14 05:19:49;;;;;;;2.10;1.03;;;15.00;1.00;;;;;;4982196;28;20461;-77
2022/04/14 05:22:17;;;;;;;0.80;0.50;;;14.90;1.00;;;;;;4977354;28;20463;-77
2022/04/14 05:24:46;;;;;;;9.40;1.77;;;15.00;1.00;;;;;;4977127;28;20929;-75
2022/04/14 05:27:14;;;;;;;5.87;3.07;;;15.00;1.00;;;;;;4983031;28;20462;-76
2022/04/14 05:29:42;;;;;;;1.80;1.60;;;15.00;1.00;;;;;;4979288;28;20551;-76
2022/04/14 05:32:10;;;;;;;0.60;0.20;;;15.00;1.00;;;;;;4982566;28;20549;-76
2022/04/14 05:34:38;;;;;;;1.17;0.87;;;15.00;1.00;;;;;;4973184;28;20953;-76
2022/04/14 05:37:07;;;;;;;14.93;2.57;;;15.00;1.00;;;;;;4971214;28;20479;-77
2022/04/14 05:39:35;;;;;;;4.60;4.20;;;15.00;1.00;;;;;;4955729;29;20455;-77
2022/04/14 05:42:04;;;;;;;0.60;0.20;;;15.00;1.00;;;;;;4955967;29;20554;-76
2022/04/14 05:44:32;;;;;;;1.33;1.23;;;15.00;1.00;;;;;;4955072;28;20819;-77
2022/04/14 05:47:00;;;;;;;1.50;1.40;;;15.10;1.00;;;;;;4993690;28;20917;-77
2022/04/14 05:49:28;;;;;;;2.10;1.27;;;15.10;1.00;;;;;;4979441;28;20486;-77
2022/04/14 05:51:56;;;;;;;3.73;2.20;;;15.10;1.00;;;;;;4986016;28;20492;-77
2022/04/14 05:54:24;;;;;;;0.60;0.10;;;15.20;1.00;;;;;;4977630;28;20456;-77
2022/04/14 05:56:52;;;;;;;1.10;0.73;;;15.30;1.00;;;;;;4978668;28;20487;-76
2022/04/14 05:59:22;;;;;;;0.60;0.10;;;15.30;1.00;;;;;;4988365;28;20853;-76
2022/04/14 06:01:50;;;;;;;1.53;0.47;;;15.30;1.00;;;;;;4982181;28;21204;-74
2022/04/14 06:04:23;;;;;;;0.70;0.33;;;15.50;1.00;;;;;;4977029;28;20970;-75
2022/04/14 06:06:51;;;;;;;1.33;1.23;;;15.60;1.00;;;;;;4984327;28;20551;-78
2022/04/14 06:09:19;;;;;;;4.93;3.50;;;15.60;1.00;;;;;;4995746;28;20556;-76
2022/04/14 06:11:47;;;;;;;1.10;0.63;;;16.10;1.00;;;;;;4993829;28;20448;-75
2022/04/14 06:14:15;;;;;;;7.97;7.40;;;15.70;1.00;;;;;;4985647;28;20447;-76
2022/04/14 06:16:44;;;;;;;2.23;1.30;;;15.70;1.00;;;;;;4975792;28;20482;-76
2022/04/14 06:19:13;;;;;;;0.70;0.40;;;15.70;1.00;;;;;;4980680;28;20530;-79
2022/04/14 06:21:41;;;;;;;0.90;0.30;;;15.80;1.00;;;;;;4983563;28;20555;-77
2022/04/14 06:24:09;;;;;;;0.60;0.10;;;15.80;1.00;;;;;;4980340;28;20980;-77
2022/04/14 06:26:37;;;;;;;1.43;1.13;;;;;;;;;;4985071;28;20476;-77
2022/04/14 06:29:06;;;;;;;0.70;0.60;;;15.90;1.00;;;;;;4978806;28;20512;-75
2022/04/14 06:31:35;;;;;;;0.60;0.17;;;;;;;;;;4979811;28;20457;-76
2022/04/14 06:34:05;;;;;;;0.60;0.20;;;15.80;1.00;;;;;;4979144;28;20965;-76
2022/04/14 06:36:33;;;;;;;1.90;1.07;;;15.90;1.00;;;;;;4978876;28;20950;-76
2022/04/14 06:39:01;;;;;;;1.20;0.67;;;15.80;1.00;;;;;;4981126;28;20526;-78
2022/04/14 06:41:29;;;;;;;2.47;2.37;;;15.80;1.00;;;;;;4981296;28;20564;-78
2022/04/14 06:43:57;;;;;;;0.60;0.30;;;15.90;1.00;;;;;;4996112;28;20463;-76
2022/04/14 06:46:27;;;;;;;8.93;1.53;;;15.90;1.00;;;;;;5011720;28;20611;-77
2022/04/14 06:48:57;;;;;;;1.17;0.87;;;15.90;1.00;;;;;;5008157;28;20486;-77
2022/04/14 06:51:26;;;;;;;2.80;2.07;;;;;;;;;;4999211;28;20878;-77
2022/04/14 06:53:54;;;;;;;0.60;0.10;;;15.80;1.00;;;;;;4990349;28;20747;-75
2022/04/14 06:56:22;;;;;;;0.60;0.30;;;15.80;1.00;;;;;;4994338;28;20503;-77
2022/04/14 06:58:50;;;;;;;2.20;1.80;;;15.80;1.00;;;;;;4988215;28;20533;-75
2022/04/14 07:01:18;;;;;;;4.30;4.10;;;15.80;1.00;;;;;;4983382;28;20533;-78
2022/04/14 07:03:46;;;;;;;2.13;1.40;;;15.80;1.00;;;;;;4997465;28;20450;-76
2022/04/14 07:06:14;;;;;;;0.60;0.10;;;15.80;1.00;;;;;;4997841;28;20460;-77
2022/04/14 07:08:44;;;;;;;0.70;0.30;;;15.90;1.00;;;;;;4986244;28;20511;-77
2022/04/14 07:11:12;;;;;;;4.10;1.90;;;16.00;1.00;;;;;;4991175;28;20485;-77
2022/04/14 07:13:40;;;;;;;2.00;1.30;;;15.90;1.00;;;;;;4990290;28;20471;-79
2022/04/14 07:16:08;;;;;;;1.33;1.20;;;15.80;1.00;;;;;;4993846;28;20800;-77
2022/04/14 07:18:36;;;;;;;2.03;0.93;;;15.80;1.00;;;;;;5003791;28;20449;-76
2022/04/14 07:21:06;;;;;;;1.43;1.33;;;15.80;1.00;;;;;;5002470;28;20483;-76
2022/04/14 07:23:34;;;;;;;1.00;0.87;;;15.80;1.00;;;;;;4997959;28;21023;-76
2022/04/14 07:26:03;;;;;;;1.20;1.00;;;15.90;1.00;;;;;;4988137;28;20450;-76
2022/04/14 07:28:31;;;;;;;0.97;0.77;;;15.90;1.00;;;;;;4976646;28;20463;-76
2022/04/14 07:30:59;;;;;;;0.80;0.50;;;15.80;1.00;;;;;;4987820;28;20849;-76
2022/04/14 07:33:27;;;;;;;2.20;2.10;;;15.80;1.00;;;;;;4999071;28;20535;-76
2022/04/14 07:35:55;;;;;;;1.77;1.40;;;15.80;1.00;;;;;;4998115;28;20463;-76
2022/04/14 07:38:23;;;;;;;1.93;1.30;;;15.80;1.00;;;;;;4998230;28;20525;-75
2022/04/14 07:40:52;;;;;;;0.60;0.20;;;15.90;1.00;;;;;;4992211;28;20880;-75
2022/04/14 07:43:21;;;;;;;1.50;1.40;;;15.90;1.00;;;;;;4993932;28;20452;-76
2022/04/14 07:45:49;;;;;;;1.23;1.13;;;15.90;1.00;;;;;;4998643;28;20470;-77
2022/04/14 07:48:21;;;;;;;0.60;0.10;;;15.90;1.00;;;;;;5000266;28;20502;-75
2022/04/14 07:50:49;;;;;;;1.63;1.13;;;16.00;1.00;;;;;;4974059;28;20574;-75
2022/04/14 07:53:18;;;;;;;0.60;0.20;;;16.00;1.00;;;;;;4994927;28;20438;-71
2022/04/14 07:55:46;;;;;;;4.57;4.13;;;16.10;1.00;;;;;;4974775;28;20460;-70
2022/04/14 07:58:14;;;;;;;4.83;2.67;;;16.20;1.00;;;;;;4974230;28;20477;-71
2022/04/14 08:00:45;;;;;;;1.13;0.63;;;16.20;1.00;;;;;;4993956;28;20459;-75
2022/04/14 08:03:13;;;;;;;1.63;0.63;;;16.40;1.00;;;;;;4995869;28;20449;-76
2022/04/14 08:05:44;;;;;;;1.07;0.80;;;16.40;1.00;;;;;;4995484;28;20558;-76
2022/04/14 08:08:14;;;;;;;1.07;0.70;;;16.40;1.00;;;;;;4986772;28;20475;-75
2022/04/14 08:10:44;;;;;;;0.90;0.50;;;16.50;1.00;;;;;;4988592;28;20480;-75
2022/04/14 08:13:12;;;;;;;1.90;1.33;;;16.60;1.00;;;;;;4974602;28;20561;-74
2022/04/14 08:15:43;;;;;;;0.60;0.23;;;16.60;1.00;;;;;;4982839;28;20454;-74
2022/04/14 08:18:10;;;;;;;2.40;2.30;;;16.60;1.00;;;;;;4980533;28;20484;-72
2022/04/14 08:20:40;;;;;;;8.53;6.30;;;16.60;1.00;;;;;;4992902;28;20450;-75
2022/04/14 08:23:12;;;;;;;0.87;0.20;;;16.60;1.00;;;;;;4996589;28;20460;-76
2022/04/14 08:25:40;;;;;;;1.57;1.47;;;16.50;1.00;;;;;;4996529;28;20976;-76
2022/04/14 08:28:13;;;;;;;0.87;0.80;;;16.50;1.00;;;;;;4997404;28;20469;-75
2022/04/14 08:30:44;;;;;;;2.10;2.00;;;16.60;1.00;;;;;;5005709;28;20477;-75
2022/04/14 08:33:14;;;;;;;0.87;0.67;;;16.70;1.00;;;;;;5003686;28;20446;-76
2022/04/14 08:35:44;;;;;;;2.03;1.93;;;16.60;1.00;;;;;;4998378;28;20451;-76
2022/04/14 08:38:11;;;;;;;1.60;1.50;;;16.60;1.00;;;;;;4974628;28;20485;-75
2022/04/14 08:40:42;;;;;;;0.60;0.23;;;16.60;1.00;;;;;;4986516;28;20519;-74
2022/04/14 08:43:34;;;;;;;1.90;1.80;;;16.60;1.00;;;;;;4979132;28;20466;-75
2022/04/14 08:46:06;;;;;;;0.60;0.10;;;16.60;1.00;;;;;;4989706;28;20475;-76
2022/04/14 08:48:36;;;;;;;3.13;0.93;;;16.60;1.00;;;;;;4978299;28;20499;-75
2022/04/14 08:51:05;;;;;;;1.20;1.10;;;16.60;1.00;;;;;;4984884;28;20487;-73
2022/04/14 08:53:36;;;;;;;0.60;0.40;;;16.70;1.00;;;;;;4974979;28;20457;-75
2022/04/14 08:56:07;;;;;;;2.30;0.93;;;16.80;1.00;;;;;;4986694;28;20451;-74
2022/04/14 08:58:37;;;;;;;1.50;1.30;;;16.80;1.00;;;;;;5051102;23;20501;-75
2022/04/14 09:01:07;;;;;;;1.90;1.60;;;16.90;1.00;;;;;;5031385;28;20443;-72
2022/04/14 09:03:56;;;;;;;0.70;0.40;;;16.80;1.00;;;;;;5043869;28;20435;-74
2022/04/14 09:06:27;;;;;;;2.80;2.27;;;16.80;1.00;;;;;;5059669;28;20444;-74
2022/04/14 09:08:58;;;;;;;1.27;1.17;;;16.80;1.00;;;;;;5038220;28;20805;-73
2022/04/14 09:11:26;;;;;;;1.33;1.13;;;;;;;;;;5042605;28;20989;-73
2022/04/14 09:13:55;;;;;;;1.00;0.67;;;16.90;1.00;;;;;;5049769;28;20809;-74
2022/04/14 09:16:25;;;;;;;1.20;0.73;;;16.90;1.00;;;;;;5040386;28;20539;-76
2022/04/14 09:18:54;;;;;;;0.80;0.43;;;17.00;1.00;;;;;;5043758;28;21017;-73
2022/04/14 09:21:21;;;;;;;0.60;0.10;;;16.80;1.00;;;;;;5031492;28;20511;-74
2022/04/14 09:23:52;;;;;;;1.10;0.83;;;16.90;1.00;;;;;;5030948;28;20450;-76
2022/04/14 09:26:23;;;;;;;6.73;1.07;;;16.80;1.00;;;;;;5030521;28;20508;-75
2022/04/14 09:29:07;;;;;;;1.10;0.80;;;16.80;1.00;;;;;;5030668;28;20465;-76
2022/04/14 09:31:58;;;;;;;2.40;1.17;;;16.90;1.00;;;;;;5011076;28;20903;-75
2022/04/14 09:34:42;;;;;;;0.97;0.53;;;17.10;1.00;;;;;;5003932;28;20459;-74
2022/04/14 09:37:11;;;;;;;0.60;0.10;;;17.20;1.00;;;;;;5015089;28;20458;-76
2022/04/14 09:40:00;;;;;;;0.60;0.20;;;17.20;1.00;;;;;;5030213;28;20451;-76
2022/04/14 09:42:30;;;;;;;1.87;1.13;;;17.30;1.00;;;;;;5030454;28;20443;-76
2022/04/14 09:45:17;;;;;;;0.60;0.20;;;17.30;1.00;;;;;;5030254;28;20439;-76
2022/04/14 09:48:05;;;;;;;1.97;1.87;;;17.40;1.00;;;;;;5030021;28;20554;-75
2022/04/14 09:50:35;;;;;;;0.60;0.10;;;17.60;1.00;;;;;;5046217;28;20514;-75
2022/04/14 09:53:08;;;;;;;0.90;0.70;;;17.70;1.00;;;;;;5054554;28;20558;-77
2022/04/14 09:55:38;;;;;;;0.80;0.67;;;17.80;1.00;;;;;;5053870;28;20452;-75
2022/04/14 09:58:10;;;;;;;0.60;0.20;;;17.90;1.00;;;;;;5053989;28;21071;-73
2022/04/14 10:00:46;;;;;;;1.23;0.30;;;17.90;1.00;;;;;;5039120;28;20444;-73
2022/04/14 10:03:18;;;;;;;0.60;0.20;;;17.90;1.00;;;;;;5015107;28;20546;-74
2022/04/14 10:05:46;;;;;;;0.90;0.40;;;18.00;1.00;;;;;;5027554;28;20854;-75
2022/04/14 10:08:15;;;;;;;0.70;0.30;;;17.90;1.00;;;;;;5034281;28;20465;-75
2022/04/14 10:10:44;;;;;;;1.03;0.40;;;17.80;1.00;;;;;;5049981;28;20494;-74
2022/04/14 10:13:13;;;;;;;0.60;0.10;;;17.70;1.00;;;;;;5054811;28;20442;-76
2022/04/14 10:15:45;;;;;;;0.80;0.50;;;17.60;1.00;;;;;;5054120;28;20459;-75
2022/04/14 10:18:14;;;;;;;1.10;0.70;;;17.60;1.00;;;;;;5053455;28;20467;-75
2022/04/14 10:20:46;;;;;;;2.17;1.70;;;17.50;1.00;;;;;;5038019;28;20441;-75
2022/04/14 10:23:15;;;;;;;0.70;0.40;;;17.30;1.00;;;;;;5034442;28;20454;-75
2022/04/14 10:25:43;;;;;;;0.70;0.60;;;17.30;1.00;;;;;;5033594;28;20869;-75
2022/04/14 10:28:14;;;;;;;0.70;0.43;;;17.20;1.00;;;;;;5033302;28;21072;-73
2022/04/14 10:30:45;;;;;;;0.60;0.20;;;17.10;1.00;;;;;;5040516;28;20573;-77
2022/04/14 10:33:19;;;;;;;1.10;0.77;;;17.10;1.00;;;;;;5052285;28;21002;-77
2022/04/14 10:35:49;;;;;;;0.90;0.80;;;16.90;1.00;;;;;;5033367;28;20469;-76
2022/04/14 10:38:22;;;;;;;0.87;0.77;;;15.10;1.00;;;;;;5033982;28;20570;-76
2022/04/14 10:40:54;;;;;;;0.60;0.20;;;16.80;1.00;;;;;;5034135;28;20434;-75
2022/04/14 10:43:26;;;;;;;1.03;0.93;;;16.70;1.00;;;;;;5033986;28;20951;-74
2022/04/14 10:45:55;;;;;;;1.53;0.57;;;16.80;1.00;;;;;;5050361;28;20469;-76
2022/04/14 10:48:30;;;;;;;0.70;0.27;;;16.70;1.00;;;;;;5053321;28;20527;-74
2022/04/14 10:51:27;;;;;;;0.70;0.40;;;16.70;1.00;;;;;;5052557;28;20481;-75
2022/04/14 10:53:57;;;;;;;0.73;0.73;;;16.70;1.00;;;;;;5053053;28;20474;-77
2022/04/14 10:56:46;;;;;;;0.80;0.60;;;16.70;1.00;;;;;;5037590;28;21035;-75
2022/04/14 10:59:15;;;;;;;0.90;0.53;;;16.70;1.00;;;;;;5053157;28;20439;-76
2022/04/14 11:01:59;;;;;;;1.47;1.27;;;16.70;1.00;;;;;;5053080;28;20434;-74
2022/04/14 11:04:37;;;;;;;7.53;3.70;;;16.80;1.00;;;;;;5052135;28;20444;-75
2022/04/14 11:07:11;;;;;;;0.60;0.10;;;16.80;1.00;;;;;;5052955;28;20458;-75
2022/04/14 11:09:53;;;;;;;1.43;0.33;;;16.90;1.00;;;;;;5036665;28;20522;-76
2022/04/14 11:12:23;;;;;;;0.60;0.10;;;17.10;1.00;;;;;;5032929;28;20571;-76
2022/04/14 11:14:53;;;;;;;1.93;0.77;;;17.00;1.00;;;;;;5033142;28;20451;-75
2022/04/14 11:17:52;;;;;;;0.60;0.20;;;17.20;1.00;;;;;;5032507;28;20467;-75
2022/04/14 11:21:04;;;;;;;0.63;0.27;;;17.20;1.00;;;;;;5033216;28;20495;-77
2022/04/14 11:23:35;;;;;;;0.70;0.37;;;;;;;;;;5032089;28;20901;-75
2022/04/14 11:26:06;;;;;;;0.60;0.17;;;17.40;1.00;;;;;;5034546;28;20501;-76
2022/04/14 11:28:36;;;;;;;0.60;0.20;;;17.50;1.00;;;;;;5033599;28;20464;-74
2022/04/14 11:31:06;;;;;;;0.60;0.10;;;17.60;1.00;;;;;;5033128;28;20475;-76
2022/04/14 11:33:44;;;;;;;0.60;0.10;;;17.60;1.00;;;;;;5033973;28;20463;-77
2022/04/14 11:36:15;;;;;;;0.60;0.10;;;17.70;1.00;;;;;;5051353;28;20492;-76
2022/04/14 11:39:00;;;;;;;0.80;0.47;;;17.90;1.00;;;;;;5041005;28;20542;-75
2022/04/14 11:41:33;;;;;;;0.60;0.30;;;18.20;99.90;;;;;;5024609;28;20518;-74
2022/04/14 11:44:02;;;;;;;0.60;0.10;;;18.20;99.90;;;;;;5033110;28;20442;-75
2022/04/14 11:46:31;;;;;;;1.53;0.50;;;18.20;99.90;;;;;;5028435;28;20476;-75
2022/04/14 11:49:00;;;;;;;0.60;0.10;;;18.20;99.90;;;;;;5048925;28;20539;-75
2022/04/14 11:51:28;;;;;;;0.60;0.17;;;17.30;99.90;;;;;;5052311;28;20479;-74
2022/04/14 11:53:57;;;;;;;0.60;0.10;;;18.60;99.90;;;;;;5052205;28;20939;-74
2022/04/14 11:56:43;;;;;;;0.60;0.23;;;19.10;99.90;;;;;;5051754;28;20451;-75
2022/04/14 11:59:11;;;;;;;0.70;0.20;;;19.00;99.90;;;;;;5036973;28;20946;-77
2022/04/14 12:01:50;;;;;;;0.60;0.20;;;19.10;99.90;;;;;;5030065;28;20521;-74
2022/04/14 12:04:18;;;;;;;1.03;0.40;;;19.00;99.90;;;;;;5033767;28;20438;-75
2022/04/14 12:06:53;;;;;;;0.90;0.70;;;19.20;99.90;;;;;;5029004;28;20473;-73
2022/04/14 12:09:24;;;;;;;0.60;0.20;;;19.20;99.90;;;;;;5032149;28;20441;-74
2022/04/14 12:11:52;;;;;;;0.60;0.20;;;19.10;99.90;;;;;;5032194;28;20486;-76
2022/04/14 12:14:21;;;;;;;1.13;0.47;;;19.10;99.90;;;;;;5030609;28;20439;-74
2022/04/14 12:16:50;;;;;;;0.67;0.33;;;19.00;99.90;;;;;;5030017;28;20526;-75
2022/04/14 12:19:18;;;;;;;0.60;0.20;;;18.90;99.90;;;;;;5031672;28;20443;-75
2022/04/14 12:22:01;;;;;;;0.60;0.10;;;18.80;99.90;;;;;;5032942;28;20860;-76
2022/04/14 12:24:30;;;;;;;0.60;0.10;;;18.70;99.90;;;;;;5033921;28;20443;-76
2022/04/14 12:26:58;;;;;;;0.60;0.20;;;18.80;99.90;;;;;;5031466;28;20862;-75
2022/04/14 12:29:27;;;;;;;6.83;0.80;;;18.80;99.90;;;;;;5034217;28;20469;-76
2022/04/14 12:32:09;;;;;;;2.07;0.60;;;18.90;99.90;;;;;;5034216;28;20488;-75
2022/04/14 12:34:41;;;;;;;0.60;0.10;;;19.00;99.90;;;;;;5032079;28;20567;-76
2022/04/14 12:37:13;;;;;;;0.60;0.10;;;18.90;99.90;;;;;;5048124;28;20550;-75
2022/04/14 12:40:02;;;;;;;0.70;0.37;;;19.10;99.90;;;;;;5052445;28;20446;-75
2022/04/14 12:42:32;;;;;;;0.60;0.10;;;19.10;99.90;;;;;;5051841;28;20932;-76
2022/04/14 12:45:05;;;;;;;0.60;0.10;;;19.10;99.90;;;;;;5046374;28;20522;-75
2022/04/14 12:47:34;;;;;;;0.60;0.10;;;19.30;99.90;;;;;;5023853;28;20465;-76
2022/04/14 12:50:03;;;;;;;0.60;0.20;;;19.40;99.90;;;;;;5035881;28;20467;-75
2022/04/14 12:52:31;;;;;;;0.60;0.10;;;19.40;99.90;;;;;;5031538;28;20633;-77
2022/04/14 12:55:01;;;;;;;0.60;0.10;;;19.60;99.90;;;;;;5031300;28;20526;-75
2022/04/14 12:57:30;;;;;;;0.60;0.20;;;19.70;99.90;;;;;;5030397;28;20501;-74
2022/04/14 13:00:07;;;;;;;0.70;0.20;;;19.80;99.90;;;;;;5031651;28;20449;-74
2022/04/14 13:02:35;;;;;;;0.60;0.10;;;19.80;99.90;;;;;;5035405;28;20438;-74
2022/04/14 13:05:11;;;;;;;0.60;0.20;;;19.90;99.90;;;;;;5033991;28;20474;-74
2022/04/14 13:07:47;;;;;;;0.60;0.10;;;19.90;99.90;;;;;;5033515;28;20462;-74
2022/04/14 13:10:25;;;;;;;0.60;0.20;;;19.90;99.90;;;;;;5036005;28;20461;-76
2022/04/14 13:12:53;;;;;;;0.60;0.10;;;20.10;99.90;;;;;;5030322;28;20480;-75
2022/04/14 13:15:22;;;;;;;0.60;0.10;;;20.40;99.90;;;;;;5029993;28;20954;-75
2022/04/14 13:17:51;;;;;;;0.67;0.10;;;20.40;99.90;;;;;;5030409;28;20470;-79
2022/04/14 13:20:21;;;;;;;0.60;0.20;;;20.40;99.90;;;;;;5029449;28;20469;-76
2022/04/14 13:22:51;;;;;;;1.27;0.37;;;20.40;99.90;;;;;;5031414;28;21169;-77